<?xml version="1.0" encoding="UTF-8" standalone="no" ?>
<gpx xmlns="http://www.topografix.com/GPX/1/1" xmlns:xsi="http://www.w3.org/2001/XMLSchema-instance" xsi:schemaLocation="http://www.topografix.com/GPX/1/1 http://www.topografix.com/GPX/1/1/gpx.xsd" version="1.1" creator="VisuGPX - https://www.visugpx.com">
  <metadata>
    <name>Argentina</name>
    <desc><![CDATA[Downloaded from eMap Software Version 2.75]]></desc>
  </metadata>
  <trk>
    <name><![CDATA[Argentina_77]]></name>
    <extensions>
      <line xmlns="http://www.topografix.com/GPX/gpx_style/0/2">
        <color>ff0000</color>
        <opacity>0.78</opacity>
        <width>0.6000</width>
      </line>
    </extensions>
    <trkseg>
      <trkpt lat="44.19495" lon="6.86676">
        <ele>2075.623535</ele>
        <time>2008-08-10T09:11:54Z</time>
      </trkpt>
      <trkpt lat="44.19499" lon="6.86673">
        <ele>2072.739746</ele>
        <time>2008-08-10T09:12:07Z</time>
      </trkpt>
      <trkpt lat="44.19497" lon="6.86665">
        <ele>2073.220459</ele>
        <time>2008-08-10T09:12:27Z</time>
      </trkpt>
      <trkpt lat="44.19491" lon="6.86661">
        <ele>2075.623535</ele>
        <time>2008-08-10T09:12:45Z</time>
      </trkpt>
      <trkpt lat="44.19489" lon="6.86648">
        <ele>2078.0271</ele>
        <time>2008-08-10T09:13:11Z</time>
      </trkpt>
      <trkpt lat="44.19493" lon="6.86639">
        <ele>2079.949707</ele>
        <time>2008-08-10T09:13:38Z</time>
      </trkpt>
      <trkpt lat="44.19491" lon="6.86628">
        <ele>2083.794922</ele>
        <time>2008-08-10T09:13:57Z</time>
      </trkpt>
      <trkpt lat="44.19495" lon="6.8662">
        <ele>2090.043457</ele>
        <time>2008-08-10T09:14:28Z</time>
      </trkpt>
      <trkpt lat="44.19499" lon="6.866">
        <ele>2091.966064</ele>
        <time>2008-08-10T09:14:54Z</time>
      </trkpt>
      <trkpt lat="44.19506" lon="6.86579">
        <ele>2094.369385</ele>
        <time>2008-08-10T09:15:22Z</time>
      </trkpt>
      <trkpt lat="44.19508" lon="6.86551">
        <ele>2098.695313</ele>
        <time>2008-08-10T09:15:59Z</time>
      </trkpt>
      <trkpt lat="44.19512" lon="6.8653">
        <ele>2099.656738</ele>
        <time>2008-08-10T09:16:35Z</time>
      </trkpt>
      <trkpt lat="44.19512" lon="6.8651">
        <ele>2102.059814</ele>
        <time>2008-08-10T09:17:02Z</time>
      </trkpt>
      <trkpt lat="44.19512" lon="6.86491">
        <ele>2103.982666</ele>
        <time>2008-08-10T09:17:27Z</time>
      </trkpt>
      <trkpt lat="44.19517" lon="6.86476">
        <ele>2110.231201</ele>
        <time>2008-08-10T09:18:08Z</time>
      </trkpt>
      <trkpt lat="44.19517" lon="6.86476">
        <ele>2110.231201</ele>
        <time>2008-08-10T09:18:11Z</time>
      </trkpt>
      <trkpt lat="44.19523" lon="6.86435">
        <ele>2113.595703</ele>
        <time>2008-08-10T09:18:46Z</time>
      </trkpt>
      <trkpt lat="44.19523" lon="6.86429">
        <ele>2113.595703</ele>
        <time>2008-08-10T09:18:52Z</time>
      </trkpt>
      <trkpt lat="44.19493" lon="6.8639">
        <ele>2117.440918</ele>
        <time>2008-08-10T09:19:45Z</time>
      </trkpt>
      <trkpt lat="44.19482" lon="6.86388">
        <ele>2118.402344</ele>
        <time>2008-08-10T09:20:02Z</time>
      </trkpt>
      <trkpt lat="44.19469" lon="6.86358">
        <ele>2118.402344</ele>
        <time>2008-08-10T09:20:36Z</time>
      </trkpt>
      <trkpt lat="44.19461" lon="6.86322">
        <ele>2117.440918</ele>
        <time>2008-08-10T09:21:11Z</time>
      </trkpt>
      <trkpt lat="44.19459" lon="6.8627">
        <ele>2125.131592</ele>
        <time>2008-08-10T09:21:54Z</time>
      </trkpt>
      <trkpt lat="44.1945" lon="6.86261">
        <ele>2126.57373</ele>
        <time>2008-08-10T09:22:19Z</time>
      </trkpt>
      <trkpt lat="44.19444" lon="6.86225">
        <ele>2130.899658</ele>
        <time>2008-08-10T09:22:59Z</time>
      </trkpt>
      <trkpt lat="44.1945" lon="6.86214">
        <ele>2128.496338</ele>
        <time>2008-08-10T09:23:19Z</time>
      </trkpt>
      <trkpt lat="44.19435" lon="6.86206">
        <ele>2132.341553</ele>
        <time>2008-08-10T09:23:56Z</time>
      </trkpt>
      <trkpt lat="44.19437" lon="6.86195">
        <ele>2133.302734</ele>
        <time>2008-08-10T09:24:27Z</time>
      </trkpt>
      <trkpt lat="44.19446" lon="6.86184">
        <ele>2138.109375</ele>
        <time>2008-08-10T09:24:50Z</time>
      </trkpt>
      <trkpt lat="44.19448" lon="6.8618">
        <ele>2144.35791</ele>
        <time>2008-08-10T09:25:05Z</time>
      </trkpt>
      <trkpt lat="44.19454" lon="6.86158">
        <ele>2146.76123</ele>
        <time>2008-08-10T09:25:32Z</time>
      </trkpt>
      <trkpt lat="44.19472" lon="6.86146">
        <ele>2153.971191</ele>
        <time>2008-08-10T09:26:18Z</time>
      </trkpt>
    </trkseg>
  </trk>
</gpx>